SBBV

Atlas Brasil Cantanhede Airport

Boa Vista, Brazil
TAF SBBV 191600Z 1918/2018 11008KT 9999 SCT040 TN25/2007Z TX34/2018Z BECMG 1919/1921 SCT040 FEW045TCU BECMG 2003/2005 10004KT CAVOK BECMG 2009/ 2011 09008KT 9999 SCT030 BECMG 2015/2017 11008KT SCT040 RMK PFM
Issued Valid From Valid To
Sep-19 @ 16:00 UTC
(7 hours ago)
Sep-19 @ 18:00 UTC
(5 hours ago)
Sep-20 @ 18:00 UTC
(in 19 hours)
Expired Click to View Sep-19 @ 18:00 to Sep-19 @ 19:00
TAF SBBV 191600Z 1918/2018 11008KT 9999 SCT040 TN25/2007Z TX34/2018Z
Wind Visibility Clouds
110° at 8 knots 10,000+ meters
  • Scattered at 4,000' AGL
Becoming Sep-19 @ 19:00 to Sep-20 @ 03:00
BECMG 1919/1921 SCT040 FEW045TCU
Wind Visibility Clouds
110° at 8 knots 10,000+ meters
  • Scattered at 4,000' AGL
  • Few at 4,500' AGL
Becoming Sep-20 @ 03:00 to Sep-20 @ 15:00
BECMG 2003/2005 10004KT CAVOK
Wind Visibility Clouds Conditions
100° at 4 knots 10,000+ meters
  • No significant clouds
Becoming Sep-20 @ 15:00 to Sep-20 @ 18:00
BECMG 2015/2017 11008KT SCT040 RMK PFM
Wind Visibility Clouds Conditions
110° at 8 knots 10,000+ meters
  • Scattered at 4,000' AGL
TAF SBBV 191600Z 1918/2018 11008KT 9999 SCT040 TN25/2007Z TX34/2018Z BECMG 1919/1921 SCT040 FEW045TCU BECMG 2003/2005 10004KT CAVOK BECMG 2009/ 2011 09008KT 9999 SCT030 BECMG 2015/2017 11008KT SCT040 RMK PFM
Issued Sep-19 @ 16:00 UTC
(7 hours ago)
Valid From Sep-19 @ 18:00 UTC
(5 hours ago)
Valid To Sep-20 @ 18:00 UTC
(in 19 hours)
Sep-19 @ 18:00 - Sep-19 @ 19:00
Wind Visibility
110° at 8 knots 10,000+ meters
Clouds
  • Scattered at 4,000' AGL
Becoming Sep-19 @ 19:00 - Sep-20 @ 03:00
Wind Visibility
110° at 8 knots 10,000+ meters
Clouds
  • Scattered at 4,000' AGL
  • Few at 4,500' AGL
Becoming Sep-20 @ 03:00 - Sep-20 @ 15:00
Wind Visibility
100° at 4 knots 10,000+ meters
Clouds
  • No significant clouds
Conditions
Becoming Sep-20 @ 15:00 - Sep-20 @ 18:00
Wind Visibility
110° at 8 knots 10,000+ meters
Clouds
  • Scattered at 4,000' AGL
Conditions